createdAt,value
2022-10-17T00:00:37.160Z,10.77
2022-10-17T00:01:37.042Z,10.77
2022-10-17T00:02:37.048Z,10.78
2022-10-17T00:03:37.963Z,10.9
2022-10-17T00:04:37.018Z,11.04
2022-10-17T00:05:44.467Z,11.05
2022-10-17T00:06:41.147Z,11.02
2022-10-17T00:07:41.138Z,10.93
2022-10-17T00:08:41.920Z,10.78
2022-10-17T00:09:43.747Z,10.8
2022-10-17T00:10:41.942Z,10.8
2022-10-17T00:11:41.173Z,10.8
2022-10-17T00:12:41.252Z,10.86
2022-10-17T00:13:41.245Z,10.87
2022-10-17T00:14:41.302Z,10.84
2022-10-17T00:15:43.905Z,10.85
2022-10-17T00:16:41.500Z,10.84
2022-10-17T00:17:41.195Z,10.74
2022-10-17T00:18:41.489Z,10.75
2022-10-17T00:19:41.471Z,10.83
2022-10-17T00:20:41.262Z,10.73
2022-10-17T00:21:41.514Z,10.71
2022-10-17T00:22:41.569Z,10.69
2022-10-17T00:23:41.374Z,10.66
2022-10-17T00:24:41.399Z,10.77
2022-10-17T00:25:41.325Z,10.82
2022-10-17T00:26:41.397Z,10.73
2022-10-17T00:27:46.446Z,10.67
2022-10-17T00:28:45.605Z,10.68
2022-10-17T00:29:43.108Z,10.71
2022-10-17T00:30:43.131Z,10.8
2022-10-17T00:31:43.176Z,10.83
2022-10-17T00:32:43.169Z,10.84
2022-10-17T00:33:43.393Z,10.85
2022-10-17T00:34:43.245Z,10.87
2022-10-17T00:35:43.230Z,10.89
2022-10-17T00:36:43.212Z,10.92
2022-10-17T00:37:43.216Z,10.82
2022-10-17T00:38:44.448Z,10.86
2022-10-17T00:39:43.282Z,10.85
2022-10-17T00:40:43.280Z,10.78
2022-10-17T00:41:43.258Z,10.81
2022-10-17T00:42:43.509Z,10.8
2022-10-17T00:43:54.719Z,10.9
2022-10-17T00:44:55.064Z,10.76
2022-10-17T00:45:46.716Z,10.88
2022-10-17T00:46:46.750Z,10.83
2022-10-17T00:47:50.174Z,10.8
2022-10-17T00:48:48.105Z,10.79
2022-10-17T00:49:47.462Z,10.87
2022-10-17T00:50:49.152Z,10.89
2022-10-17T00:51:50.507Z,10.83
2022-10-17T00:52:48.719Z,10.81
2022-10-17T00:53:47.541Z,10.81
2022-10-17T00:54:53.470Z,10.89
2022-10-17T00:55:52.689Z,10.91
2022-10-17T00:56:51.066Z,10.79
2022-10-17T00:57:50.598Z,10.76
2022-10-17T00:58:50.296Z,10.78
2022-10-17T00:59:54.932Z,10.81
2022-10-17T01:00:51.617Z,10.79
2022-10-17T01:01:56.537Z,10.73
2022-10-17T01:02:53.191Z,10.75
2022-10-17T01:03:53.177Z,10.72
2022-10-17T01:04:53.893Z,10.78
2022-10-17T01:05:53.216Z,10.72
2022-10-17T01:06:53.268Z,10.72
2022-10-17T01:07:53.774Z,10.72
2022-10-17T01:08:53.293Z,10.72
2022-10-17T01:09:53.258Z,10.69
2022-10-17T01:11:03.054Z,10.77
2022-10-17T01:22:23.080Z,10.67
2022-10-17T01:31:47.278Z,10.55
2022-10-17T01:32:49.559Z,10.59
2022-10-17T01:40:10.129Z,10.47
2022-10-17T01:41:14.231Z,10.49
2022-10-17T01:42:13.706Z,10.39
2022-10-17T01:43:18.158Z,10.33
2022-10-17T01:46:22.758Z,10.32
2022-10-17T01:47:21.406Z,10.46
2022-10-17T01:48:23.807Z,10.36
2022-10-17T01:49:24.575Z,10.48
2022-10-17T01:50:25.007Z,10.42
2022-10-17T01:51:26.355Z,10.35
2022-10-17T01:52:33.538Z,10.33
2022-10-17T01:53:31.327Z,10.32
2022-10-17T01:54:32.199Z,10.31
2022-10-17T01:55:32.710Z,10.26
2022-10-17T01:56:31.425Z,10.25
2022-10-17T01:57:31.935Z,10.22
2022-10-17T01:58:31.239Z,10.28
2022-10-17T01:59:33.991Z,10.13
2022-10-17T02:00:31.671Z,10.07
2022-10-17T02:01:31.101Z,10.07
2022-10-17T02:02:31.016Z,10.07
2022-10-17T02:03:31.244Z,9.98
2022-10-17T02:04:30.762Z,10
2022-10-17T02:05:32.351Z,10.08
2022-10-17T02:06:34.063Z,10.02
2022-10-17T02:07:30.926Z,10.13
2022-10-17T02:09:32.881Z,10.19
2022-10-17T02:11:36.142Z,10.05
2022-10-17T02:21:01.866Z,9.84
2022-10-17T02:23:11.114Z,9.59
2022-10-17T02:24:12.349Z,9.59
2022-10-17T02:25:14.514Z,9.54
2022-10-17T02:26:10.608Z,9.59
2022-10-17T02:29:19.142Z,9.58
2022-10-17T02:31:23.997Z,9.51
2022-10-17T02:34:29.620Z,9.61
2022-10-17T02:35:29.374Z,9.61
2022-10-17T02:36:30.455Z,9.53
2022-10-17T02:37:28.741Z,9.52
2022-10-17T02:38:28.809Z,9.44
2022-10-17T02:39:28.309Z,9.53
2022-10-17T02:40:29.299Z,9.52
2022-10-17T02:41:26.872Z,9.38
2022-10-17T02:42:28.366Z,9.43
2022-10-17T02:43:28.025Z,9.45
2022-10-17T02:44:28.044Z,9.31
2022-10-17T02:45:27.818Z,9.36
2022-10-17T02:46:27.885Z,9.47
2022-10-17T02:47:35.672Z,9.59
2022-10-17T02:48:35.451Z,9.67
2022-10-17T02:49:36.100Z,9.63
2022-10-17T02:54:47.751Z,9.39
2022-10-17T02:55:48.120Z,9.28
2022-10-17T02:56:50.562Z,9.38
2022-10-17T02:57:54.374Z,9.29
2022-10-17T02:58:54.441Z,9.3
2022-10-17T02:59:50.887Z,9.21
2022-10-17T03:00:51.423Z,9.33
2022-10-17T03:01:50.677Z,9.24
2022-10-17T03:02:51.363Z,9.22
2022-10-17T03:03:50.929Z,9.22
2022-10-17T03:04:50.897Z,9.3
2022-10-17T03:05:50.719Z,9.3
2022-10-17T03:06:50.744Z,9.21
2022-10-17T03:07:51.220Z,9.24
2022-10-17T03:08:50.725Z,9.22
2022-10-17T03:09:50.797Z,9.2
2022-10-17T03:10:51.153Z,9.17
2022-10-17T03:11:50.811Z,9.16
2022-10-17T03:12:50.809Z,9.22
2022-10-17T03:13:50.847Z,9.27
2022-10-17T03:14:50.802Z,9.19
2022-10-17T03:15:50.830Z,9.07
2022-10-17T03:16:51.146Z,9.15
2022-10-17T03:17:50.894Z,8.99
2022-10-17T03:18:50.909Z,8.98
2022-10-17T03:19:50.960Z,9.2
2022-10-17T03:20:50.908Z,9.03
2022-10-17T03:21:50.946Z,9.07
2022-10-17T03:22:50.971Z,9.16
2022-10-17T03:23:50.932Z,9.23
2022-10-17T03:24:50.964Z,9.16
2022-10-17T03:25:50.983Z,9.09
2022-10-17T03:26:50.980Z,9.2
2022-10-17T03:27:51.038Z,9.1
2022-10-17T03:28:53.688Z,9.1
2022-10-17T03:29:51.291Z,9.09
2022-10-17T03:30:51.053Z,9.22
2022-10-17T03:31:51.066Z,9.1
2022-10-17T03:32:51.091Z,9.08
2022-10-17T03:33:51.112Z,9.4
2022-10-17T03:34:51.113Z,9.37
2022-10-17T03:35:51.117Z,9.29
2022-10-17T03:36:51.163Z,9.45
2022-10-17T03:37:51.165Z,9.46
2022-10-17T03:38:54.506Z,9.49
2022-10-17T03:39:51.187Z,9.57
2022-10-17T03:40:56.948Z,9.45
2022-10-17T03:41:53.165Z,9.37
2022-10-17T03:42:53.381Z,9.46
2022-10-17T03:43:53.683Z,9.45
2022-10-17T03:44:53.168Z,9.36
2022-10-17T03:45:53.190Z,9.41
2022-10-17T03:46:53.225Z,9.55
2022-10-17T03:47:53.346Z,9.56
2022-10-17T03:48:53.483Z,9.5
2022-10-17T03:49:53.247Z,9.45
2022-10-17T03:50:57.970Z,9.4
2022-10-17T03:51:54.149Z,9.29
2022-10-17T03:52:54.242Z,9.26
2022-10-17T03:53:54.196Z,9.32
2022-10-17T03:54:54.205Z,9.32
2022-10-17T03:55:54.251Z,9.23
2022-10-17T03:56:54.536Z,9.2
2022-10-17T03:57:54.256Z,9.39
2022-10-17T03:58:54.746Z,9.47
2022-10-17T03:59:54.262Z,9.33
2022-10-17T04:00:54.334Z,9.21
2022-10-17T04:01:54.272Z,9.23
2022-10-17T04:02:54.327Z,9.14
2022-10-17T04:03:55.569Z,9.12
2022-10-17T04:04:54.338Z,9.06
2022-10-17T04:05:54.351Z,9.07
2022-10-17T04:06:54.369Z,9.15
2022-10-17T04:07:54.405Z,9.1
2022-10-17T04:08:54.423Z,9
2022-10-17T04:09:54.459Z,9.08
2022-10-17T04:10:58.301Z,9.14
2022-10-17T04:11:54.495Z,9.18
2022-10-17T04:12:54.506Z,9.21
2022-10-17T04:13:55.472Z,9.14
2022-10-17T04:14:54.574Z,9.08
2022-10-17T04:15:58.083Z,9.06
2022-10-17T04:16:54.615Z,9.12
2022-10-17T04:17:54.684Z,9.13
2022-10-17T04:18:56.136Z,9.05
2022-10-17T04:19:54.682Z,9.07
2022-10-17T04:20:54.677Z,9.05
2022-10-17T04:21:54.654Z,9.05
2022-10-17T04:22:54.652Z,9.1
2022-10-17T04:23:55.392Z,9.01
2022-10-17T04:24:54.723Z,8.91
2022-10-17T04:25:58.126Z,8.88
2022-10-17T04:26:54.725Z,8.9
2022-10-17T04:27:54.731Z,9.14
2022-10-17T04:28:54.756Z,9.1
2022-10-17T04:29:54.790Z,9.12
2022-10-17T04:30:58.947Z,8.99
2022-10-17T04:31:55.176Z,9.01
2022-10-17T04:32:55.182Z,9.08
2022-10-17T04:33:55.232Z,9.13
2022-10-17T04:34:55.203Z,9.04
2022-10-17T04:36:01.998Z,9.08
2022-10-17T04:36:58.176Z,8.94
2022-10-17T04:37:58.408Z,8.94
2022-10-17T04:39:00.131Z,8.96
2022-10-17T04:39:58.270Z,8.95
2022-10-17T04:40:58.669Z,8.85
2022-10-17T04:41:58.493Z,8.73
2022-10-17T04:42:58.301Z,8.84
2022-10-17T04:43:58.779Z,8.83
2022-10-17T04:44:58.340Z,8.9
2022-10-17T04:45:59.021Z,9.01
2022-10-17T04:46:59.901Z,8.91
2022-10-17T04:47:58.352Z,9
2022-10-17T04:48:58.408Z,8.77
2022-10-17T04:49:58.424Z,8.74
2022-10-17T04:51:02.966Z,8.76
2022-10-17T04:51:59.172Z,8.73
2022-10-17T04:52:59.415Z,8.82
2022-10-17T04:53:59.196Z,8.74
2022-10-17T04:54:59.204Z,8.62
2022-10-17T04:55:59.273Z,8.64
2022-10-17T04:56:59.270Z,8.66
2022-10-17T04:57:59.251Z,8.65
2022-10-17T04:58:59.284Z,8.67
2022-10-17T04:59:59.335Z,8.76
2022-10-17T05:00:59.376Z,8.8
2022-10-17T05:01:59.338Z,8.8
2022-10-17T05:02:59.381Z,8.77
2022-10-17T05:03:59.354Z,8.83
2022-10-17T05:04:59.376Z,8.84
2022-10-17T05:06:02.741Z,8.86
2022-10-17T05:06:59.452Z,8.86
2022-10-17T05:07:59.445Z,8.84
2022-10-17T05:08:59.438Z,8.85
2022-10-17T05:09:59.460Z,8.86
2022-10-17T05:11:59.538Z,8.81
2022-10-17T05:12:59.524Z,8.89
2022-10-17T05:14:00.996Z,8.75
2022-10-17T05:14:59.564Z,8.69
2022-10-17T05:16:02.318Z,8.68
2022-10-17T05:16:59.642Z,8.66
2022-10-17T05:17:59.591Z,8.69
2022-10-17T05:18:59.594Z,8.78
2022-10-17T05:19:59.635Z,8.94
2022-10-17T05:20:59.622Z,8.86
2022-10-17T05:21:59.723Z,8.79
2022-10-17T05:23:00.326Z,8.75
2022-10-17T05:23:59.810Z,8.74
2022-10-17T05:24:59.732Z,8.67
2022-10-17T05:25:59.768Z,8.73
2022-10-17T05:26:59.837Z,8.73
2022-10-17T05:27:59.745Z,8.79
2022-10-17T05:29:00.455Z,8.75
2022-10-17T05:29:59.761Z,8.78
2022-10-17T05:31:05.818Z,8.75
2022-10-17T05:33:02.486Z,8.6
2022-10-17T05:34:02.968Z,8.56
2022-10-17T05:35:02.109Z,8.54
2022-10-17T05:36:02.094Z,8.66
2022-10-17T05:37:02.116Z,8.74
2022-10-17T05:38:02.101Z,8.83
2022-10-17T05:39:02.120Z,8.72
2022-10-17T05:40:02.501Z,8.77
2022-10-17T05:41:03.794Z,8.87
2022-10-17T05:42:02.192Z,8.88
2022-10-17T05:43:02.228Z,8.92
2022-10-17T05:44:04.754Z,8.91
2022-10-17T05:45:02.272Z,8.94
2022-10-17T05:46:03.475Z,8.93
2022-10-17T05:47:02.236Z,8.93
2022-10-17T05:48:02.509Z,8.94
2022-10-17T05:49:03.592Z,9.06
2022-10-17T05:50:04.604Z,9
2022-10-17T05:51:05.963Z,8.98
2022-10-17T05:52:04.643Z,9
2022-10-17T05:53:04.360Z,9.03
2022-10-17T05:54:06.944Z,9.17
2022-10-17T05:55:05.086Z,9.16
2022-10-17T05:56:05.802Z,9.2
2022-10-17T05:57:04.405Z,9.21
2022-10-17T05:58:04.263Z,9.19
2022-10-17T05:59:04.669Z,9.22
2022-10-17T06:00:05.008Z,9.24
2022-10-17T06:01:07.123Z,9.25
2022-10-17T06:02:05.891Z,9.3
2022-10-17T06:03:05.736Z,9.3
2022-10-17T06:04:05.761Z,9.28
2022-10-17T06:05:06.043Z,9.29
2022-10-17T06:06:06.936Z,9.28
2022-10-17T06:07:05.761Z,9.2
2022-10-17T06:08:06.097Z,9.21
2022-10-17T06:09:06.260Z,9.25
2022-10-17T06:10:06.065Z,9.21
2022-10-17T06:11:09.250Z,9.25
2022-10-17T06:12:07.437Z,9.24
2022-10-17T06:13:06.907Z,9.22
2022-10-17T06:14:06.850Z,9.3
2022-10-17T06:15:07.364Z,9.27
2022-10-17T06:16:07.118Z,9.31
2022-10-17T06:17:09.945Z,9.3
2022-10-17T06:18:08.723Z,9.32
2022-10-17T06:19:08.537Z,9.33
2022-10-17T06:20:09.013Z,9.36
2022-10-17T06:21:09.753Z,9.3
2022-10-17T06:22:08.569Z,9.36
2022-10-17T06:23:08.573Z,9.39
2022-10-17T06:24:08.592Z,9.4
2022-10-17T06:25:09.180Z,9.38
2022-10-17T06:26:08.880Z,9.39
2022-10-17T06:27:11.768Z,9.44
2022-10-17T06:28:08.875Z,9.49
2022-10-17T06:29:09.166Z,9.48
2022-10-17T06:30:09.278Z,9.45
2022-10-17T06:31:09.902Z,9.41
2022-10-17T06:32:11.257Z,9.42
2022-10-17T06:33:10.669Z,9.37
2022-10-17T06:34:10.717Z,9.38
2022-10-17T06:35:10.658Z,9.37
2022-10-17T06:36:12.373Z,9.36
2022-10-17T06:37:10.714Z,9.36
2022-10-17T06:38:10.762Z,9.39
2022-10-17T06:39:10.913Z,9.42
2022-10-17T06:40:11.334Z,9.42
2022-10-17T06:41:12.656Z,9.39
2022-10-17T06:42:10.779Z,9.43
2022-10-17T06:43:10.779Z,9.4
2022-10-17T06:44:11.636Z,9.46
2022-10-17T06:45:11.077Z,9.45
2022-10-17T06:46:10.853Z,9.5
2022-10-17T06:47:10.835Z,9.47
2022-10-17T06:48:10.889Z,9.48
2022-10-17T06:49:11.118Z,9.51
2022-10-17T06:50:11.006Z,9.5
2022-10-17T06:51:11.220Z,9.53
2022-10-17T06:52:10.918Z,9.55
2022-10-17T06:53:10.954Z,9.55
2022-10-17T06:54:10.983Z,9.59
2022-10-17T06:55:11.036Z,9.54
2022-10-17T06:56:11.014Z,9.57
2022-10-17T06:57:11.087Z,9.59
2022-10-17T06:58:11.235Z,9.61
2022-10-17T06:59:11.442Z,9.61
2022-10-17T07:00:11.808Z,9.58
2022-10-17T07:01:12.436Z,9.6
2022-10-17T07:02:11.545Z,9.63
2022-10-17T07:03:11.153Z,9.64
2022-10-17T07:04:11.442Z,9.58
2022-10-17T07:05:11.647Z,9.61
2022-10-17T07:06:12.739Z,9.61
2022-10-17T07:07:11.274Z,9.65
2022-10-17T07:08:11.933Z,9.7
2022-10-17T07:09:11.280Z,9.64
2022-10-17T07:10:12.017Z,9.66
2022-10-17T07:11:12.614Z,9.65
2022-10-17T07:12:11.374Z,9.65
2022-10-17T07:13:11.514Z,9.67
2022-10-17T07:14:11.620Z,9.66
2022-10-17T07:15:11.571Z,9.64
2022-10-17T07:16:11.393Z,9.63
2022-10-17T07:17:11.593Z,9.67
2022-10-17T07:18:11.427Z,9.7
2022-10-17T07:19:11.398Z,9.65
2022-10-17T07:20:11.673Z,9.63
2022-10-17T07:21:12.002Z,9.64
2022-10-17T07:22:11.922Z,9.61
2022-10-17T07:23:11.491Z,9.6
2022-10-17T07:24:11.481Z,9.56
2022-10-17T07:25:11.703Z,9.7
2022-10-17T07:26:13.128Z,9.64
2022-10-17T07:27:12.349Z,9.63
2022-10-17T07:28:11.532Z,9.69
2022-10-17T07:29:11.603Z,9.67
2022-10-17T07:30:11.922Z,9.69
2022-10-17T07:31:18.190Z,9.71
2022-10-17T07:32:14.805Z,9.74
2022-10-17T07:33:14.810Z,9.77
2022-10-17T07:34:14.657Z,9.75
2022-10-17T07:35:14.905Z,9.76
2022-10-17T07:36:15.666Z,9.86
2022-10-17T07:37:14.886Z,9.9
2022-10-17T07:38:14.898Z,9.85
2022-10-17T07:39:15.223Z,9.83
2022-10-17T07:40:14.674Z,9.95
2022-10-17T07:41:19.170Z,9.95
2022-10-17T07:42:17.900Z,9.95
2022-10-17T07:43:17.822Z,9.95
2022-10-17T07:44:18.403Z,9.95
2022-10-17T07:45:18.413Z,9.95
2022-10-17T07:46:17.942Z,9.95
2022-10-17T07:47:18.031Z,9.98
2022-10-17T07:48:18.126Z,9.99
2022-10-17T07:49:18.102Z,10.03
2022-10-17T07:50:19.815Z,10.05
2022-10-17T07:51:17.993Z,10.01
2022-10-17T07:52:18.330Z,9.98
2022-10-17T07:53:18.057Z,10
2022-10-17T07:54:17.994Z,10.01
2022-10-17T07:55:18.057Z,10.04
2022-10-17T07:56:18.096Z,10.09
2022-10-17T07:57:18.323Z,10.1
2022-10-17T07:58:18.277Z,10.11
2022-10-17T07:59:18.477Z,10.09
2022-10-17T08:00:18.592Z,10.1
2022-10-17T08:01:18.677Z,10.13
2022-10-17T08:02:23.291Z,10.09
2022-10-17T08:03:19.490Z,10.12
2022-10-17T08:04:19.726Z,10.13
2022-10-17T08:05:19.826Z,10.15
2022-10-17T08:06:19.594Z,10.17
2022-10-17T08:07:24.199Z,10.17
2022-10-17T08:08:23.280Z,10.15
2022-10-17T08:09:23.538Z,10.18
2022-10-17T08:10:23.673Z,10.2
2022-10-17T08:11:23.521Z,10.22
2022-10-17T08:12:23.339Z,10.22
2022-10-17T08:13:23.335Z,10.25
2022-10-17T08:14:23.401Z,10.33
2022-10-17T08:15:27.924Z,10.34
2022-10-17T08:16:27.135Z,10.34
2022-10-17T08:17:27.274Z,10.36
2022-10-17T08:18:27.213Z,10.37
2022-10-17T08:19:27.185Z,10.32
2022-10-17T08:20:27.228Z,10.3
2022-10-17T08:21:27.291Z,10.3
2022-10-17T08:22:27.516Z,10.31
2022-10-17T08:23:27.731Z,10.31
2022-10-17T08:24:27.295Z,10.28
2022-10-17T08:25:28.580Z,10.29
2022-10-17T08:26:27.963Z,10.3
2022-10-17T08:27:27.373Z,10.36
2022-10-17T08:28:27.641Z,10.39
2022-10-17T08:29:27.386Z,10.48
2022-10-17T08:30:27.369Z,10.45
2022-10-17T08:31:27.428Z,10.47
2022-10-17T08:32:28.393Z,10.51
2022-10-17T08:33:27.416Z,10.44
2022-10-17T08:34:27.466Z,10.41
2022-10-17T08:35:27.464Z,10.4
2022-10-17T08:36:27.664Z,10.41
2022-10-17T08:37:27.847Z,10.43
2022-10-17T08:38:34.688Z,10.46
2022-10-17T08:39:31.835Z,10.49
2022-10-17T08:40:31.887Z,10.54
2022-10-17T08:46:45.258Z,10.56
2022-10-17T08:47:45.250Z,10.54
2022-10-17T08:48:46.539Z,10.52
2022-10-17T08:49:51.510Z,10.5
2022-10-17T08:51:51.766Z,10.54
2022-10-17T08:52:50.956Z,10.61
2022-10-17T08:53:51.885Z,10.68
2022-10-17T08:54:48.828Z,10.76
2022-10-17T08:55:52.061Z,10.73
2022-10-17T08:57:49.431Z,10.75
2022-10-17T08:58:49.608Z,10.77
2022-10-17T08:59:51.101Z,10.84
2022-10-17T09:07:20.919Z,10.95
2022-10-17T09:10:21.052Z,10.9
2022-10-17T09:14:32.057Z,11.17
2022-10-17T09:18:36.229Z,11.21
2022-10-17T09:19:36.786Z,11.09
2022-10-17T09:20:37.315Z,11.1
2022-10-17T09:22:41.279Z,10.99
2022-10-17T09:25:46.760Z,10.97
2022-10-17T09:26:44.693Z,10.96
2022-10-17T09:27:45.814Z,10.9
2022-10-17T09:28:43.731Z,10.92
2022-10-17T09:29:46.036Z,11.01
2022-10-17T09:30:46.597Z,10.97
2022-10-17T09:32:44.673Z,10.92
2022-10-17T09:33:54.691Z,11.03
2022-10-17T09:34:46.594Z,10.96
2022-10-17T09:35:46.795Z,10.98
2022-10-17T09:36:46.436Z,11.03
2022-10-17T09:37:51.386Z,11.03
2022-10-17T09:38:50.320Z,10.99
2022-10-17T09:39:47.813Z,10.99
2022-10-17T09:40:56.947Z,11.02
2022-10-17T09:41:53.407Z,11.09
2022-10-17T09:42:53.403Z,11.07
2022-10-17T09:43:52.959Z,11.1
2022-10-17T09:50:03.177Z,11.09
2022-10-17T09:51:14.670Z,11.06
2022-10-17T09:52:04.537Z,11.08
2022-10-17T09:54:11.271Z,11.06
2022-10-17T09:56:13.343Z,11.14
2022-10-17T09:57:12.424Z,11.28
2022-10-17T09:58:11.623Z,11.28
2022-10-17T09:59:13.919Z,11.2
2022-10-17T10:02:22.608Z,11.23
2022-10-17T10:03:20.457Z,11.32
2022-10-17T10:04:18.813Z,11.42
2022-10-17T10:05:19.448Z,11.56
2022-10-17T10:06:20.374Z,11.5
2022-10-17T10:07:19.495Z,11.58
2022-10-17T10:08:19.629Z,11.51
2022-10-17T10:09:25.702Z,11.45
2022-10-17T10:10:27.841Z,11.44
2022-10-17T10:11:26.054Z,11.48
2022-10-17T10:12:25.996Z,11.47
2022-10-17T10:13:25.986Z,11.37
2022-10-17T10:16:33.353Z,11.33
2022-10-17T10:18:36.377Z,11.33
2022-10-17T10:19:37.410Z,11.33
2022-10-17T10:20:37.201Z,11.41
2022-10-17T10:22:40.765Z,11.55
2022-10-17T10:23:41.609Z,11.32
2022-10-17T10:24:40.560Z,11.24
2022-10-17T10:25:52.184Z,11.23
2022-10-17T10:26:45.494Z,11.29
2022-10-17T10:27:45.321Z,11.3
2022-10-17T10:28:50.945Z,11.35
2022-10-17T10:29:51.398Z,11.34
2022-10-17T10:30:51.158Z,11.37
2022-10-17T10:31:48.598Z,11.32
2022-10-17T10:32:48.855Z,11.26
2022-10-17T10:33:50.258Z,11.25
2022-10-17T10:37:56.575Z,11.27
2022-10-17T10:38:58.334Z,11.48
2022-10-17T10:39:59.522Z,11.43
2022-10-17T10:40:57.426Z,11.47
2022-10-17T10:41:55.914Z,11.61
2022-10-17T10:43:01.286Z,11.47
2022-10-17T10:43:56.351Z,11.33
2022-10-17T10:45:02.357Z,11.21
2022-10-17T10:45:59.170Z,11.42
2022-10-17T10:48:06.160Z,11.43
2022-10-17T10:49:02.670Z,11.4
2022-10-17T10:51:15.052Z,11.4
2022-10-17T10:52:15.773Z,11.55
2022-10-17T10:54:19.898Z,11.75
2022-10-17T10:55:23.075Z,11.81
2022-10-17T10:56:31.480Z,11.66
2022-10-17T10:57:28.088Z,11.75
2022-10-17T10:58:33.574Z,11.82
2022-10-17T11:00:31.926Z,11.76
2022-10-17T11:06:39.886Z,11.83
2022-10-17T11:08:45.776Z,11.74
2022-10-17T11:11:00.680Z,11.67
2022-10-17T11:11:50.344Z,11.75
2022-10-17T11:12:50.970Z,11.74
2022-10-17T11:15:58.930Z,11.77
2022-10-17T11:18:00.505Z,12.07
2022-10-17T11:20:10.666Z,12
2022-10-17T11:21:13.258Z,12.18
2022-10-17T11:23:15.667Z,12.17
2022-10-17T11:24:16.305Z,12.25
2022-10-17T11:25:17.636Z,12.29
2022-10-17T11:26:23.296Z,12.11
2022-10-17T11:27:15.082Z,12.17
2022-10-17T11:28:16.843Z,12.12
2022-10-17T11:29:15.822Z,12.12
2022-10-17T11:30:18.042Z,12.23
2022-10-17T11:31:15.663Z,12.22
2022-10-17T11:32:17.051Z,12.21
2022-10-17T11:33:22.042Z,11.95
2022-10-17T11:34:22.852Z,11.96
2022-10-17T11:35:21.090Z,11.78
2022-10-17T11:36:21.241Z,11.78
2022-10-17T11:37:22.889Z,11.96
2022-10-17T11:38:26.993Z,12
2022-10-17T11:39:29.636Z,11.93
2022-10-17T11:40:34.537Z,12.02
2022-10-17T11:41:42.856Z,12.09
2022-10-17T11:42:39.076Z,12.23
2022-10-17T11:43:40.530Z,12.25
2022-10-17T11:44:38.133Z,12.05
2022-10-17T11:45:41.139Z,11.94
2022-10-17T11:46:40.145Z,11.85
2022-10-17T11:47:43.574Z,12.03
2022-10-17T11:48:50.779Z,12.12
2022-10-17T11:49:48.567Z,12.23
2022-10-17T11:54:03.119Z,12.14
2022-10-17T11:54:56.444Z,12.28
2022-10-17T11:55:58.067Z,12.25
2022-10-17T12:00:07.048Z,12.32
2022-10-17T12:01:16.145Z,12.27
2022-10-17T12:02:22.127Z,12.14
2022-10-17T12:09:27.684Z,12.01
2022-10-17T12:12:32.588Z,12.21
2022-10-17T12:15:35.500Z,12.26
2022-10-17T12:16:39.092Z,12.29
2022-10-17T12:17:37.702Z,12.26
2022-10-17T12:18:36.939Z,12.23
2022-10-17T12:19:37.040Z,12.08
2022-10-17T12:20:37.684Z,11.86
2022-10-17T12:22:46.540Z,11.69
2022-10-17T12:23:51.533Z,11.62
2022-10-17T12:25:52.158Z,11.6
2022-10-17T12:26:52.255Z,11.59
2022-10-17T12:27:50.855Z,11.59
2022-10-17T12:28:50.472Z,11.78
2022-10-17T12:29:50.591Z,11.9
2022-10-17T12:30:58.055Z,12.07
2022-10-17T12:31:54.261Z,12.25
2022-10-17T12:34:00.011Z,12.71
2022-10-17T12:34:59.186Z,12.6
2022-10-17T12:37:02.751Z,12.52
2022-10-17T12:41:07.293Z,12.21
2022-10-17T12:46:12.874Z,12.08
2022-10-17T12:48:12.515Z,11.93
2022-10-17T12:53:24.729Z,12.01
2022-10-17T12:54:23.194Z,12.14
2022-10-17T12:55:24.648Z,12.06
2022-10-17T12:58:30.852Z,11.96
2022-10-17T12:59:29.636Z,11.99
2022-10-17T13:01:34.163Z,11.97
2022-10-17T13:02:33.245Z,11.99
2022-10-17T13:03:33.349Z,11.93
2022-10-17T13:04:36.053Z,12.01
2022-10-17T13:05:36.957Z,12.01
2022-10-17T13:06:35.047Z,11.98
2022-10-17T13:07:34.173Z,12.01
2022-10-17T13:08:34.556Z,12.07
2022-10-17T13:09:36.069Z,12.02
2022-10-17T13:10:40.647Z,12.08
2022-10-17T13:11:35.757Z,12.04
2022-10-17T13:12:41.229Z,12.09
2022-10-17T13:13:41.731Z,12.17
2022-10-17T13:14:39.002Z,12.1
2022-10-17T13:15:37.942Z,12.09
2022-10-17T13:16:39.199Z,12.01
2022-10-17T13:17:40.646Z,12.03
2022-10-17T13:18:39.376Z,11.93
2022-10-17T13:19:43.851Z,11.86
2022-10-17T13:20:40.074Z,12.07
2022-10-17T13:21:49.086Z,12.2
2022-10-17T13:22:44.631Z,12.07
2022-10-17T13:23:40.914Z,12.14
2022-10-17T13:24:40.858Z,12.14
2022-10-17T13:25:40.889Z,12.2
2022-10-17T13:26:44.854Z,12.15
2022-10-17T13:27:41.192Z,12.16
2022-10-17T13:28:41.817Z,12.12
2022-10-17T13:29:44.318Z,11.99
2022-10-17T13:30:45.989Z,11.87
2022-10-17T13:31:43.491Z,11.8
2022-10-17T13:32:42.226Z,11.65
2022-10-17T13:33:42.220Z,11.62
2022-10-17T13:34:42.475Z,11.65
2022-10-17T13:35:59.335Z,11.59
2022-10-17T13:36:48.876Z,11.62
2022-10-17T13:37:53.018Z,11.6
2022-10-17T13:38:52.757Z,11.59
2022-10-17T13:39:55.784Z,11.59
2022-10-17T13:41:01.676Z,11.57
2022-10-17T13:41:58.147Z,11.53
2022-10-17T13:42:58.539Z,11.57
2022-10-17T13:43:57.781Z,11.59
2022-10-17T13:44:58.457Z,11.57
2022-10-17T13:46:13.646Z,11.54
2022-10-17T13:47:01.315Z,11.53
2022-10-17T13:51:11.177Z,11.47
2022-10-17T13:52:17.070Z,11.42
2022-10-17T13:55:17.449Z,11.3
2022-10-17T13:57:23.344Z,11.31
2022-10-17T13:58:19.998Z,11.33
2022-10-17T13:59:23.738Z,11.19
2022-10-17T14:00:21.391Z,11.11
2022-10-17T14:01:23.621Z,10.99
2022-10-17T14:02:22.294Z,11.12
2022-10-17T14:03:21.077Z,11.22
2022-10-17T14:04:20.778Z,11.14
2022-10-17T14:05:21.298Z,11.07
2022-10-17T14:06:27.781Z,11.02
2022-10-17T14:07:34.121Z,10.9
2022-10-17T14:08:25.152Z,10.9
2022-10-17T14:09:25.724Z,11.03
2022-10-17T14:10:31.674Z,10.89
2022-10-17T14:11:35.771Z,10.99
2022-10-17T14:12:33.234Z,11.08
2022-10-17T14:13:32.504Z,11.03
2022-10-17T14:14:51.620Z,10.97
2022-10-17T14:15:35.713Z,10.96
2022-10-17T14:16:34.995Z,10.75
2022-10-17T14:17:33.694Z,10.82
2022-10-17T14:18:36.344Z,10.71
2022-10-17T14:19:35.947Z,10.84
2022-10-17T14:21:08.178Z,10.77
2022-10-17T14:21:43.726Z,10.8
2022-10-17T14:22:36.393Z,10.91
2022-10-17T14:23:37.876Z,10.86
2022-10-17T14:24:36.439Z,10.8
2022-10-17T14:25:37.613Z,10.76
2022-10-17T14:28:39.829Z,10.75
2022-10-17T14:29:52.013Z,10.61
2022-10-17T14:31:02.691Z,10.59
2022-10-17T14:31:44.038Z,10.57
2022-10-17T14:32:44.063Z,10.53
2022-10-17T14:33:50.705Z,10.64
2022-10-17T14:34:52.192Z,10.59
2022-10-17T14:36:52.338Z,10.46
2022-10-17T14:37:52.774Z,10.56
2022-10-17T14:38:51.878Z,10.45
2022-10-17T14:39:51.830Z,10.53
2022-10-17T14:41:54.953Z,10.54
2022-10-17T14:42:55.772Z,10.39
2022-10-17T14:43:56.126Z,10.63
2022-10-17T14:44:56.674Z,10.47
2022-10-17T14:45:57.663Z,10.58
2022-10-17T14:46:57.016Z,10.41
2022-10-17T14:47:56.280Z,10.38
2022-10-17T14:48:56.004Z,10.35
2022-10-17T14:56:04.951Z,10.03
2022-10-17T14:59:11.879Z,9.98
2022-10-17T15:00:14.659Z,10.05
2022-10-17T15:01:11.359Z,10.08
2022-10-17T15:02:11.682Z,9.96
2022-10-17T15:03:11.411Z,9.75
2022-10-17T15:04:11.384Z,9.76
2022-10-17T15:05:13.427Z,9.72
2022-10-17T15:06:21.422Z,9.62
2022-10-17T15:07:16.729Z,9.59
2022-10-17T15:08:14.267Z,9.58
2022-10-17T15:09:13.421Z,9.66
2022-10-17T15:10:23.168Z,9.61
2022-10-17T15:11:14.847Z,9.64
2022-10-17T15:12:17.466Z,9.61
2022-10-17T15:13:27.609Z,9.58
2022-10-17T15:14:15.967Z,9.55
2022-10-17T15:15:15.697Z,9.48
2022-10-17T15:16:18.688Z,9.45
2022-10-17T15:17:20.048Z,9.47
2022-10-17T15:18:16.746Z,9.47
2022-10-17T15:19:16.706Z,9.34
2022-10-17T15:20:17.604Z,9.24
2022-10-17T15:21:26.278Z,9.22
2022-10-17T15:22:20.628Z,9.25
2022-10-17T15:23:20.605Z,9.25
2022-10-17T15:24:20.648Z,9.17
2022-10-17T15:25:20.823Z,9.12
2022-10-17T15:26:22.337Z,9.11
2022-10-17T15:27:24.254Z,9.03
2022-10-17T15:28:20.897Z,9.12
2022-10-17T15:29:20.857Z,9.25
2022-10-17T15:30:22.999Z,9.22
2022-10-17T15:31:23.000Z,9.07
2022-10-17T15:32:20.959Z,8.98
2022-10-17T15:33:21.024Z,8.82
2022-10-17T15:34:20.997Z,8.77
2022-10-17T15:35:21.207Z,8.77
2022-10-17T15:36:25.515Z,8.79
2022-10-17T15:37:23.554Z,8.7
2022-10-17T15:38:22.317Z,8.71
2022-10-17T15:39:22.238Z,8.69
2022-10-17T15:40:26.808Z,8.68
2022-10-17T15:41:24.908Z,8.59
2022-10-17T15:42:27.592Z,8.64
2022-10-17T15:43:24.256Z,8.72
2022-10-17T15:44:24.299Z,8.59
2022-10-17T15:45:24.511Z,8.57
2022-10-17T15:46:28.948Z,8.65
2022-10-17T15:47:29.970Z,8.6
2022-10-17T15:48:29.755Z,8.54
2022-10-17T15:49:26.825Z,8.48
2022-10-17T15:50:26.817Z,8.42
2022-10-17T15:51:26.805Z,8.85
2022-10-17T15:52:27.442Z,8.63
2022-10-17T15:53:26.941Z,8.56
2022-10-17T15:54:26.872Z,8.53
2022-10-17T15:55:26.960Z,8.52
2022-10-17T15:56:32.205Z,8.47
2022-10-17T15:57:30.316Z,8.46
2022-10-17T15:58:33.090Z,8.45